FNLUFNMA

Guest
Details From FNLU - Luanda 4 De Fevereiro
To FNMA - Malanje
Flight Number -
Tags Generated
Created
Modified
Stats Distance 187 nm / 346 km
Max Altitude 0 ft / 0 m
Waypoints 2
Social Downloads 2
Likes 0
Share VATSIM

Download

Looking for another format? Having issues loading an existing format? Contact us
Advertisement - Login to hide

Notes

Generated

Route

FNLU FNMA

ID Type Via Altitude Latitude Longitude Leg Dist Tot Dist Heading (true) Name
O FNLU APT - 0 ft / 0 m -8.85561˚ 13.22570˚ - 0 nm - LUANDA 4 DE FEVEREIRO
O FNMA APT - 0 ft / 0 m -9.51962˚ 16.30400˚ 186 nm 186 nm 103° / 102° -

Altitude Profile

Advertisement - Login to hide

Weather


0- 5 10 15 20 25 30 35+ Temperature / ° C

Clouds and Precipitation
Forecast for 2017-12-12 18:00 UTC. Updated 42 minutes ago

Ground ~20,000 ft ~40,000 ft Winds

FNLU

Details ICAO FNLU (LAD)
Name LUANDA 4 DE FEVEREIRO
Region Angola
Timezone Africa/Luanda (UTC+1.0)
Stats Elevation 243 ft / 74 m (AMSL)
Location -8.858377° 13.231178°
Runways 2
Magnetic Variation 3.484° W

METAR

FNLU 121800Z 24004KT 9999 SCT022 26/23 Q1009 NOSIG

Decode

TAF

TAF TAF FNLU 121700Z 1218/1324 27010KT 9999 FEW020 BECMG 1221/1224 VRB03KT BKN040 TEMPO 1303/1310 9000 BKN050 BECMG 1312/1314 27010KT 9999 SCT022 TEMPO 1318/1322 22005KT

Decode

Departure Runways

ID Width Length Bearing (true) Bearing (mag) Surface Threshold Offset Overrun Length
05 148 ft / 45 m 12,153 ft / 3,704 m 46.63° 50.11° Asphalt 0 ft / 0 m 0 ft / 0 m
07 197 ft / 60 m 8,176 ft / 2,492 m 67.40° 70.88° Asphalt 0 ft / 0 m 176 ft / 54 m
23 148 ft / 45 m 12,153 ft / 3,704 m 226.62° 230.10° Asphalt 500 ft / 152 m 0 ft / 0 m
25 197 ft / 60 m 8,176 ft / 2,492 m 247.40° 250.88° Asphalt 0 ft / 0 m 0 ft / 0 m

FNMA

Details ICAO FNMA (MEG)
Name MALANJE
Region Angola
Timezone Africa/Luanda (UTC+1.0)
Stats Elevation 3,868 ft / 1,179 m (AMSL)
Location -9.525085° 16.312406°
Runways 1
Magnetic Variation 2.771° W

METAR

Not found

TAF

TAF FNMA 121100Z 1212/1224 32010KT 7000 TSRA BKN010 FEW020CB BECMG 1214/1217 27005KT 6000 SHRA BKN008 TEMPO 1218/1224 28010KT 8000 BKN020

Decode

Destination Runways

ID Width Length Bearing (true) Bearing (mag) Surface Threshold Offset Overrun Length
13 98 ft / 30 m 7,247 ft / 2,209 m 123.40° 126.17° Asphalt 0 ft / 0 m 0 ft / 0 m
31 98 ft / 30 m 7,247 ft / 2,209 m 303.40° 306.17° Asphalt 0 ft / 0 m 0 ft / 0 m

Popular Alternatives